Bookmark and Share
Track history (hours):
 

M/y A.b.normal

Last reported at 2013-Sep-24 17:03 UTC. Time now 2014-Apr-16 19:17 UTC.
Position N 42°15' E 011°01'.
Warning: this ship's position is months out of date.

Length 28 m; draft 2.6 m.

Type: Pleasure craft. MMSI: 235079977.

NotesDate/timePositionNaut miles runAvg speedWind from/ knotsBaromVisibWave heightAir tempDewpointWater temp
2013-Sep-24 17:03N 42°15' E 011°01'6 9.3
2013-Sep-24 16:23N 42°11' E 010°54'37 9.0
2013-Sep-24 12:14N 41°50' E 010°13'17 9.0
2013-Sep-24 10:18N 41°39' E 009°54'51 8.8
2013-Sep-24 04:33N 41°15' E 008°54'9 9.0
2013-Sep-24 03:33N 41°13' E 008°42'28 9.4
2013-Sep-24 00:33N 41°05' E 008°06'9 9.2
2013-Sep-23 23:33N 41°01' E 007°56'28 9.2
2013-Sep-23 20:32N 40°48' E 007°23'9 9.5
2013-Sep-23 19:33N 40°44' E 007°12'10 9.5
2013-Sep-23 18:33N 40°40' E 007°01'10 9.4
2013-Sep-23 17:32N 40°35' E 006°50'9 9.1
2013-Sep-23 16:33N 40°31' E 006°40'9 9.4
2013-Sep-23 15:33N 40°27' E 006°29'163 9.0
2013-Sep-22 21:33N 39°12' E 003°21'9 8.9
2013-Sep-22 20:32N 39°08' E 003°10'9 8.8
2013-Sep-22 19:33N 39°05' E 002°60'9 9.0
2013-Sep-22 18:33N 39°04' E 002°48'9 9.0
2013-Sep-22 17:33N 39°03' E 002°37'10 9.2
2013-Sep-22 16:26N 39°01' E 002°24'8 9.2
2013-Sep-22 15:33N 38°60' E 002°14'9 9.0
2013-Sep-22 14:33N 38°59' E 002°02'9 8.9
2013-Sep-22 13:33N 38°58' E 001°51'9 9.0
2013-Sep-22 12:33N 38°56' E 001°39'8 5.8
2013-Sep-22 11:13N 38°55' E 001°29'  

Dump ship's entire track history

sailing weather and tide predictions

M/y A.b.normal — 2DLI6 — position and weather